Terminal Aerodrome Forecast
Issued by NWS

Home | Current Version | Previous Version | Text Only | Print | Product List | Glossary On
Versions: 1 2 3 4 5 6 7 8 9 10 11 12 13 14 15 16 17 18
911
FTPA31 PHFO 241500 AAB
TAFHTO
TAF AMD
PHTO 241500Z 2415/2512 25005KT 6SM -SHRA SCT020 OVC035
      TEMPO 2415/2417 3SM SHRA BKN015 OVC030
     FM241700 04007KT 6SM -SHRA BKN020 OVC035
     FM250600 25005KT P6SM VCSH BKN030 OVC050=

USA.gov is the U.S. government's official web portal to all federal, state and local government web resources and services.